createdAt,value
2019-05-09T00:02:37.991Z,94694.77
2019-05-09T00:05:25.491Z,94687.55
2019-05-09T00:08:13.901Z,94681.95
2019-05-09T00:11:03.705Z,94674.41
2019-05-09T00:13:50.743Z,94663.52
2019-05-09T00:16:38.056Z,94665.32
2019-05-09T00:19:25.550Z,94654.09
2019-05-09T00:22:13.927Z,94648.91
2019-05-09T00:25:06.040Z,94654.76
2019-05-09T00:27:53.760Z,94654.96
2019-05-09T00:31:03.866Z,94653.63
2019-05-09T00:33:56.229Z,94654.84
2019-05-09T00:36:44.112Z,94648.45
2019-05-09T00:39:33.989Z,94654.06
2019-05-09T00:42:23.981Z,94650.34
2019-05-09T00:45:33.387Z,94651.80
2019-05-09T00:48:24.244Z,94641.28
2019-05-09T00:51:14.052Z,94641.48
2019-05-09T00:54:01.156Z,94636.55
2019-05-09T00:56:48.971Z,94650.71
2019-05-09T00:59:36.449Z,94645.09
2019-05-09T01:02:26.399Z,94646.09
2019-05-09T01:05:13.991Z,94639.02
2019-05-09T01:08:04.190Z,94647.77
2019-05-09T01:10:52.987Z,94644.63
2019-05-09T01:13:43.307Z,94648.23
2019-05-09T01:16:30.753Z,94635.06
2019-05-09T01:19:18.808Z,94642.71
2019-05-09T01:22:06.251Z,94633.30
2019-05-09T01:24:54.238Z,94629.68
2019-05-09T01:27:43.135Z,94622.95
2019-05-09T01:30:33.419Z,94626.66
2019-05-09T01:33:29.803Z,94626.20
2019-05-09T01:36:17.105Z,94627.02
2019-05-09T01:39:06.010Z,94623.73
2019-05-09T01:41:53.293Z,94624.62
2019-05-09T01:44:44.049Z,94624.51
2019-05-09T01:47:31.070Z,94618.80
2019-05-09T01:50:18.892Z,94624.05
2019-05-09T01:53:06.820Z,94624.41
2019-05-09T01:56:00.394Z,94630.01
2019-05-09T01:58:48.121Z,94625.32
2019-05-09T02:01:36.132Z,94637.19
2019-05-09T02:04:24.405Z,94628.53
2019-05-09T02:07:13.257Z,94631.77
2019-05-09T02:10:03.243Z,94631.43
2019-05-09T02:12:50.483Z,94631.97
2019-05-09T02:15:48.554Z,94632.44
2019-05-09T02:19:04.428Z,94633.58
2019-05-09T02:21:53.108Z,94634.16
2019-05-09T02:24:41.354Z,94623.05
2019-05-09T02:27:29.026Z,94614.00
2019-05-09T02:30:19.079Z,94623.20
2019-05-09T02:33:06.257Z,94622.59
2019-05-09T02:35:58.230Z,94622.69
2019-05-09T02:38:42.780Z,94624.81
2019-05-09T02:41:30.887Z,94619.65
2019-05-09T02:44:19.594Z,94625.03
2019-05-09T02:47:12.928Z,94622.77
2019-05-09T02:50:00.269Z,94623.51
2019-05-09T02:52:48.671Z,94620.81
2019-05-09T02:55:38.719Z,94622.47
2019-05-09T02:58:28.300Z,94628.89
2019-05-09T03:01:35.070Z,94629.01
2019-05-09T03:04:22.903Z,94612.23
2019-05-09T03:07:10.522Z,94603.34
2019-05-09T03:09:58.373Z,94604.14
2019-05-09T03:12:49.758Z,94602.19
2019-05-09T03:15:35.706Z,94609.93
2019-05-09T03:18:23.513Z,94615.58
2019-05-09T03:21:25.696Z,94609.96
2019-05-09T03:24:12.870Z,94603.45
2019-05-09T03:27:08.321Z,94607.06
2019-05-09T03:29:58.884Z,94595.63
2019-05-09T03:32:49.072Z,94589.78
2019-05-09T03:35:37.883Z,94585.06
2019-05-09T03:38:25.544Z,94583.94
2019-05-09T03:41:13.001Z,94576.41
2019-05-09T03:44:00.570Z,94566.66
2019-05-09T03:47:13.324Z,94560.59
2019-05-09T03:50:08.402Z,94547.53
2019-05-09T03:52:57.935Z,94545.27
2019-05-09T03:55:44.640Z,94542.80
2019-05-09T03:58:32.011Z,94552.41
2019-05-09T04:01:19.171Z,94543.42
2019-05-09T04:04:08.777Z,94546.69
2019-05-09T04:06:58.058Z,94533.58
2019-05-09T04:09:47.870Z,94543.48
2019-05-09T04:12:37.433Z,94542.91
2019-05-09T04:15:24.272Z,94544.80
2019-05-09T04:18:11.660Z,94538.49
2019-05-09T04:20:59.491Z,94538.95
2019-05-09T04:23:48.080Z,94534.80
2019-05-09T04:27:00.003Z,94540.53
2019-05-09T04:29:48.418Z,94548.58
2019-05-09T04:32:37.719Z,94555.80
2019-05-09T04:35:25.405Z,94547.72
2019-05-09T04:38:13.217Z,94547.27
2019-05-09T04:41:00.654Z,94544.34
2019-05-09T04:43:48.797Z,94542.53
2019-05-09T04:46:37.751Z,94547.53
2019-05-09T04:49:25.184Z,94553.05
2019-05-09T04:52:12.834Z,94551.61
2019-05-09T04:54:59.921Z,94553.43
2019-05-09T04:57:48.575Z,94549.56
2019-05-09T05:00:57.299Z,94543.39
2019-05-09T05:03:48.003Z,94535.64
2019-05-09T05:06:35.380Z,94525.78
2019-05-09T05:09:23.374Z,94527.53
2019-05-09T05:12:11.215Z,94516.75
2019-05-09T05:14:59.842Z,94508.90
2019-05-09T05:17:47.819Z,94520.91
2019-05-09T05:20:37.895Z,94524.99
2019-05-09T05:23:30.653Z,94525.73
2019-05-09T05:26:19.431Z,94521.34
2019-05-09T05:29:08.443Z,94535.89
2019-05-09T05:31:58.221Z,94521.90
2019-05-09T05:35:07.605Z,94526.00
2019-05-09T05:37:55.087Z,94514.26
2019-05-09T05:40:46.103Z,94512.33
2019-05-09T05:43:41.572Z,94506.84
2019-05-09T05:46:41.213Z,94491.77
2019-05-09T05:49:29.202Z,94499.84
2019-05-09T05:52:18.525Z,94505.02
2019-05-09T05:55:07.575Z,94506.05
2019-05-09T05:57:57.829Z,94513.55
2019-05-09T06:00:44.905Z,94521.16
2019-05-09T06:03:32.501Z,94524.47
2019-05-09T06:06:19.932Z,94516.15
2019-05-09T06:09:08.392Z,94512.14
2019-05-09T06:11:57.711Z,94522.62
2019-05-09T06:14:45.215Z,94526.00
2019-05-09T06:17:32.531Z,94537.04
2019-05-09T06:20:20.370Z,94537.58
2019-05-09T06:23:08.679Z,94539.30
2019-05-09T06:25:58.730Z,94529.73
2019-05-09T06:28:48.001Z,94525.84
2019-05-09T06:31:35.031Z,94526.97
2019-05-09T06:34:22.621Z,94530.17
2019-05-09T06:37:10.900Z,94516.30
2019-05-09T06:39:58.698Z,94520.91
2019-05-09T06:42:48.686Z,94529.34
2019-05-09T06:45:53.891Z,94538.72
2019-05-09T06:48:41.560Z,94521.55
2019-05-09T06:51:29.141Z,94534.05
2019-05-09T06:54:17.512Z,94533.84
2019-05-09T06:57:05.084Z,94539.26
2019-05-09T06:59:52.822Z,94544.67
2019-05-09T07:02:48.347Z,94546.67
2019-05-09T07:05:53.723Z,94535.44
2019-05-09T07:08:47.734Z,94536.99
2019-05-09T07:11:35.325Z,94539.67
2019-05-09T07:14:37.895Z,94540.53
2019-05-09T07:17:23.252Z,94547.55
2019-05-09T07:20:10.648Z,94544.29
2019-05-09T07:22:58.543Z,94547.23
2019-05-09T07:26:07.950Z,94558.71
2019-05-09T07:28:55.479Z,94564.08
2019-05-09T07:31:57.341Z,94573.13
2019-05-09T07:34:48.446Z,94571.45
2019-05-09T07:37:37.846Z,94568.92
2019-05-09T07:40:30.151Z,94566.59
2019-05-09T07:43:14.519Z,94572.07
2019-05-09T07:46:08.820Z,94562.05
2019-05-09T07:48:57.774Z,94566.66
2019-05-09T07:51:47.651Z,94561.72
2019-05-09T07:54:34.677Z,94556.98
2019-05-09T07:57:22.814Z,94560.56
2019-05-09T08:00:14.054Z,94552.05
2019-05-09T08:03:01.309Z,94540.45
2019-05-09T08:05:49.347Z,94524.56
2019-05-09T08:08:38.487Z,94540.43
2019-05-09T08:11:28.476Z,94534.89
2019-05-09T08:14:17.684Z,94539.16
2019-05-09T08:17:08.396Z,94544.02
2019-05-09T08:19:55.529Z,94534.71
2019-05-09T08:22:50.775Z,94542.67
2019-05-09T08:25:32.147Z,94529.79
2019-05-09T08:28:20.311Z,94526.59
2019-05-09T08:31:08.392Z,94539.14
2019-05-09T08:33:59.020Z,94535.86
2019-05-09T08:36:47.785Z,94531.21
2019-05-09T08:39:38.084Z,94531.17
2019-05-09T08:42:24.834Z,94531.73
2019-05-09T08:45:24.491Z,94523.08
2019-05-09T08:48:02.595Z,94527.59
2019-05-09T08:50:58.230Z,94527.52
2019-05-09T08:53:48.007Z,94534.38
2019-05-09T08:56:34.742Z,94528.95
2019-05-09T08:59:21.926Z,94541.64
2019-05-09T09:02:15.237Z,94546.50
2019-05-09T09:04:59.501Z,94548.20
2019-05-09T09:07:48.514Z,94552.11
2019-05-09T09:10:38.469Z,94547.38
2019-05-09T09:13:28.344Z,94542.64
2019-05-09T09:16:22.082Z,94543.58
2019-05-09T09:19:08.704Z,94535.47
2019-05-09T09:22:00.497Z,94547.14
2019-05-09T09:24:48.200Z,94559.00
2019-05-09T09:27:37.874Z,94545.61
2019-05-09T09:30:25.409Z,94551.13
2019-05-09T09:33:13.943Z,94540.34
2019-05-09T09:36:01.720Z,94543.01
2019-05-09T09:38:49.049Z,94547.30
2019-05-09T09:41:38.595Z,94557.17
2019-05-09T09:44:25.641Z,94556.43
2019-05-09T09:47:20.614Z,94559.90
2019-05-09T09:50:05.180Z,94556.00
2019-05-09T09:52:53.934Z,94558.17
2019-05-09T09:55:41.325Z,94547.47
2019-05-09T09:58:28.705Z,94553.11
2019-05-09T10:01:28.782Z,94565.56
2019-05-09T10:04:24.002Z,94564.97
2019-05-09T10:07:08.887Z,94565.01
2019-05-09T10:09:58.403Z,94561.07
2019-05-09T10:12:49.378Z,94563.19
2019-05-09T10:15:43.949Z,94560.09
2019-05-09T10:18:39.171Z,94549.58
2019-05-09T10:21:33.077Z,94554.23
2019-05-09T10:24:20.760Z,94566.36
2019-05-09T10:27:18.637Z,94559.94
2019-05-09T10:30:06.142Z,94574.78
2019-05-09T10:32:53.933Z,94566.80
2019-05-09T10:35:41.716Z,94567.75
2019-05-09T10:38:29.062Z,94546.64
2019-05-09T10:41:16.491Z,94552.84
2019-05-09T10:44:28.323Z,94541.03
2019-05-09T10:47:23.507Z,94548.83
2019-05-09T10:50:11.408Z,94545.50
2019-05-09T10:53:00.009Z,94550.40
2019-05-09T10:55:48.133Z,94540.62
2019-05-09T10:58:37.430Z,94528.32
2019-05-09T11:01:25.135Z,94523.20
2019-05-09T11:04:12.722Z,94504.05
2019-05-09T11:07:00.691Z,94519.28
2019-05-09T11:09:48.727Z,94503.63
2019-05-09T11:12:36.723Z,94524.55
2019-05-09T11:15:25.134Z,94518.52
2019-05-09T11:18:13.763Z,94515.91
2019-05-09T11:21:01.114Z,94514.03
2019-05-09T11:23:49.190Z,94526.92
2019-05-09T11:26:39.530Z,94522.33
2019-05-09T11:29:28.062Z,94562.44
2019-05-09T11:32:17.868Z,94587.25
2019-05-09T11:35:09.044Z,94600.94
2019-05-09T11:37:59.089Z,94575.95
2019-05-09T11:40:48.214Z,94574.39
2019-05-09T11:43:38.809Z,94571.27
2019-05-09T11:46:25.123Z,94565.63
2019-05-09T11:49:12.600Z,94558.59
2019-05-09T11:52:00.415Z,94563.68
2019-05-09T11:54:48.400Z,94549.41
2019-05-09T11:57:38.189Z,94562.88
2019-05-09T12:00:25.018Z,94573.61
2019-05-09T12:03:14.108Z,94566.52
2019-05-09T12:06:01.872Z,94569.92
2019-05-09T12:08:49.257Z,94578.27
2019-05-09T12:11:40.072Z,94601.41
2019-05-09T12:14:27.723Z,94580.95
2019-05-09T12:17:19.271Z,94611.34
2019-05-09T12:20:12.413Z,94602.37
2019-05-09T12:22:58.174Z,94605.12
2019-05-09T12:25:45.087Z,94608.67
2019-05-09T12:28:32.519Z,94597.59
2019-05-09T12:31:19.837Z,94597.32
2019-05-09T12:34:09.111Z,94594.55
2019-05-09T12:36:58.575Z,94596.73
2019-05-09T12:39:47.829Z,94595.94
2019-05-09T12:42:34.690Z,94602.66
2019-05-09T12:45:22.667Z,94608.36
2019-05-09T12:48:15.346Z,94617.91
2019-05-09T12:51:01.138Z,94625.86
2019-05-09T12:53:48.816Z,94618.02
2019-05-09T12:56:38.484Z,94636.02
2019-05-09T12:59:28.531Z,94622.33
2019-05-09T13:02:17.739Z,94634.86
2019-05-09T13:05:04.726Z,94641.23
2019-05-09T13:07:53.420Z,94646.97
2019-05-09T13:10:41.097Z,94642.28
2019-05-09T13:13:32.080Z,94656.31
2019-05-09T13:16:50.777Z,94650.52
2019-05-09T13:19:38.519Z,94651.67
2019-05-09T13:22:28.384Z,94656.34
2019-05-09T13:25:15.375Z,94661.44
2019-05-09T13:28:02.973Z,94669.23
2019-05-09T13:30:50.856Z,94678.03
2019-05-09T13:33:41.476Z,94680.98
2019-05-09T13:36:28.646Z,94668.28
2019-05-09T13:39:17.907Z,94695.02
2019-05-09T13:42:07.995Z,94675.30
2019-05-09T13:44:56.508Z,94675.67
2019-05-09T13:47:43.835Z,94680.95
2019-05-09T13:50:31.053Z,94675.50
2019-05-09T13:53:19.281Z,94675.86
2019-05-09T13:56:08.454Z,94680.59
2019-05-09T13:58:58.131Z,94668.81
2019-05-09T14:01:44.650Z,94676.96
2019-05-09T14:04:32.362Z,94681.83
2019-05-09T14:07:20.106Z,94667.19
2019-05-09T14:10:08.876Z,94690.73
2019-05-09T14:13:06.897Z,94678.80
2019-05-09T14:15:45.642Z,94677.78
2019-05-09T14:18:32.870Z,94676.42
2019-05-09T14:21:25.448Z,94668.28
2019-05-09T14:24:15.060Z,94679.38
2019-05-09T14:26:58.361Z,94683.70
2019-05-09T14:29:46.380Z,94704.36
2019-05-09T14:32:36.069Z,94706.84
2019-05-09T14:35:24.946Z,94731.69
2019-05-09T14:38:12.529Z,94738.34
2019-05-09T14:41:00.000Z,94763.72
2019-05-09T14:43:48.942Z,94761.23
2019-05-09T14:46:36.262Z,94756.36
2019-05-09T14:49:23.367Z,94757.42
2019-05-09T14:52:10.671Z,94767.52
2019-05-09T14:54:58.260Z,94758.31
2019-05-09T14:57:47.978Z,94772.55
2019-05-09T15:00:42.293Z,94766.78
2019-05-09T15:03:30.246Z,94769.95
2019-05-09T15:06:18.356Z,94768.81
2019-05-09T15:09:08.594Z,94781.66
2019-05-09T15:11:58.519Z,94780.66
2019-05-09T15:14:47.877Z,94780.27
2019-05-09T15:17:35.130Z,94785.42
2019-05-09T15:20:22.825Z,94791.78
2019-05-09T15:23:10.416Z,94784.33
2019-05-09T15:25:58.777Z,94796.68
2019-05-09T15:28:48.182Z,94781.09
2019-05-09T15:31:39.275Z,94800.66
2019-05-09T15:34:29.021Z,94797.19
2019-05-09T15:37:18.620Z,94794.79
2019-05-09T15:40:08.395Z,94798.88
2019-05-09T15:42:55.284Z,94808.33
2019-05-09T15:45:54.460Z,94805.16
2019-05-09T15:48:42.273Z,94808.24
2019-05-09T15:51:32.116Z,94798.77
2019-05-09T15:54:18.843Z,94789.25
2019-05-09T15:57:08.669Z,94802.92
2019-05-09T15:59:55.413Z,94809.27
2019-05-09T16:02:43.095Z,94804.05
2019-05-09T16:05:31.884Z,94805.94
2019-05-09T16:08:19.352Z,94792.81
2019-05-09T16:11:08.727Z,94794.95
2019-05-09T16:13:56.214Z,94797.84
2019-05-09T16:16:43.919Z,94809.72
2019-05-09T16:22:13.310Z,94820.52
2019-05-09T16:25:00.605Z,94809.31
2019-05-09T16:27:48.580Z,94816.62
2019-05-09T16:30:38.328Z,94823.66
2019-05-09T16:33:27.907Z,94814.73
2019-05-09T16:36:17.612Z,94823.66
2019-05-09T16:39:07.451Z,94816.23
2019-05-09T16:41:55.036Z,94816.62
2019-05-09T16:44:42.463Z,94800.48
2019-05-09T16:47:32.972Z,94804.14
2019-05-09T16:50:21.080Z,94815.98
2019-05-09T16:53:09.610Z,94815.89
2019-05-09T16:55:57.882Z,94806.53
2019-05-09T16:58:45.609Z,94803.91
2019-05-09T17:01:34.446Z,94805.20
2019-05-09T17:04:21.542Z,94816.38
2019-05-09T17:07:09.049Z,94797.50
2019-05-09T17:09:59.105Z,94819.38
2019-05-09T17:12:47.908Z,94831.52
2019-05-09T17:15:35.057Z,94829.27
2019-05-09T17:18:22.958Z,94814.38
2019-05-09T17:21:28.516Z,94829.73
2019-05-09T17:24:18.535Z,94837.73
2019-05-09T17:27:08.693Z,94831.37
2019-05-09T17:29:58.961Z,94837.27
2019-05-09T17:32:47.460Z,94860.72
2019-05-09T17:35:35.386Z,94856.90
2019-05-09T17:38:22.579Z,94857.73
2019-05-09T17:41:11.234Z,94854.63
2019-05-09T17:43:58.730Z,94868.59
2019-05-09T17:46:48.030Z,94866.19
2019-05-09T17:49:37.497Z,94869.77
2019-05-09T17:52:24.815Z,94870.25
2019-05-09T17:55:12.850Z,94878.87
2019-05-09T17:58:00.332Z,94889.25
2019-05-09T18:00:50.282Z,94898.05
2019-05-09T18:03:38.442Z,94902.41
2019-05-09T18:06:28.147Z,94905.45
2019-05-09T18:09:15.938Z,94907.23
2019-05-09T18:12:03.584Z,94919.66
2019-05-09T18:14:51.141Z,94917.16
2019-05-09T18:17:38.873Z,94913.66
2019-05-09T18:20:28.379Z,94923.05
2019-05-09T18:23:17.684Z,94917.61
2019-05-09T18:26:07.922Z,94918.33
2019-05-09T18:29:01.009Z,94923.39
2019-05-09T18:32:08.020Z,94930.34
2019-05-09T18:35:08.086Z,94931.67
2019-05-09T18:37:55.766Z,94922.39
2019-05-09T18:40:43.398Z,94944.42
2019-05-09T18:43:30.695Z,94946.34
2019-05-09T18:46:21.515Z,94935.47
2019-05-09T18:49:08.443Z,94941.41
2019-05-09T18:52:03.409Z,94951.49
2019-05-09T18:54:44.970Z,94941.02
2019-05-09T18:57:33.258Z,94932.50
2019-05-09T19:00:21.626Z,94945.63
2019-05-09T19:03:09.159Z,94946.13
2019-05-09T19:05:56.625Z,94962.61
2019-05-09T19:08:44.277Z,94968.20
2019-05-09T19:11:31.944Z,94975.03
2019-05-09T19:14:21.323Z,94974.75
2019-05-09T19:17:39.983Z,94984.70
2019-05-09T19:20:38.038Z,94993.30
2019-05-09T19:23:25.889Z,95001.60
2019-05-09T19:26:31.251Z,95016.41
2019-05-09T19:29:18.711Z,95029.16
2019-05-09T19:32:06.725Z,95032.05
2019-05-09T19:34:54.911Z,95032.13
2019-05-09T19:37:42.206Z,95045.37
2019-05-09T19:40:29.614Z,95052.89
2019-05-09T19:43:17.160Z,95050.28
2019-05-09T19:46:04.215Z,95051.48
2019-05-09T19:48:51.988Z,95045.47
2019-05-09T19:51:39.751Z,95051.70
2019-05-09T19:54:27.108Z,95053.39
2019-05-09T19:57:14.623Z,95058.52
2019-05-09T20:00:02.207Z,95065.45
2019-05-09T20:02:49.868Z,95062.98
2019-05-09T20:05:36.953Z,95063.73
2019-05-09T20:08:24.451Z,95066.48
2019-05-09T20:11:26.370Z,95064.72
2019-05-09T20:14:26.756Z,95059.73
2019-05-09T20:17:14.152Z,95056.55
2019-05-09T20:20:01.850Z,95064.72
2019-05-09T20:22:52.891Z,95066.22
2019-05-09T20:25:38.450Z,95067.88
2019-05-09T20:28:25.889Z,95074.84
2019-05-09T20:31:13.261Z,95073.49
2019-05-09T20:34:00.660Z,95077.86
2019-05-09T20:36:48.456Z,95080.31
2019-05-09T20:39:38.619Z,95085.20
2019-05-09T20:42:31.038Z,95079.01
2019-05-09T20:45:18.677Z,95088.25
2019-05-09T20:48:06.629Z,95085.28
2019-05-09T20:50:54.480Z,95075.88
2019-05-09T20:53:42.361Z,95083.37
2019-05-09T20:56:30.779Z,95086.08
2019-05-09T20:59:18.722Z,95095.02
2019-05-09T21:02:06.591Z,95087.54
2019-05-09T21:04:54.221Z,95097.03
2019-05-09T21:07:41.989Z,95103.06
2019-05-09T21:10:29.874Z,95107.80
2019-05-09T21:13:17.444Z,95115.81
2019-05-09T21:16:04.823Z,95119.22
2019-05-09T21:18:53.753Z,95109.69
2019-05-09T21:21:41.484Z,95113.41
2019-05-09T21:24:30.300Z,95113.19
2019-05-09T21:27:18.917Z,95113.09
2019-05-09T21:30:07.196Z,95117.69
2019-05-09T21:32:55.409Z,95121.64
2019-05-09T21:35:43.483Z,95116.23
2019-05-09T21:38:31.880Z,95118.21
2019-05-09T21:41:20.039Z,95117.34
2019-05-09T21:44:07.569Z,95113.59
2019-05-09T21:46:58.956Z,95117.13
2019-05-09T21:49:46.345Z,95117.75
2019-05-09T21:52:33.547Z,95121.36
2019-05-09T21:55:21.405Z,95121.70
2019-05-09T21:58:09.544Z,95125.82
2019-05-09T22:00:58.793Z,95126.53
2019-05-09T22:03:46.217Z,95125.78
2019-05-09T22:06:33.715Z,95129.22
2019-05-09T22:09:21.405Z,95123.07
2019-05-09T22:12:09.125Z,95112.88
2019-05-09T22:14:56.648Z,95103.88
2019-05-09T22:17:45.470Z,95110.75
2019-05-09T22:20:33.098Z,95114.38
2019-05-09T22:23:20.761Z,95120.86
2019-05-09T22:26:09.602Z,95131.71
2019-05-09T22:28:57.141Z,95133.07
2019-05-09T22:31:44.264Z,95128.55
2019-05-09T22:34:32.308Z,95136.00
2019-05-09T22:37:20.163Z,95134.43
2019-05-09T22:40:09.349Z,95134.43
2019-05-09T22:42:56.601Z,95142.28
2019-05-09T22:45:45.042Z,95137.92
2019-05-09T22:48:32.700Z,95140.77
2019-05-09T22:51:20.391Z,95137.92
2019-05-09T22:54:12.867Z,95144.15
2019-05-09T22:56:57.572Z,95144.31
2019-05-09T22:59:44.777Z,95143.26
2019-05-09T23:02:32.291Z,95135.50
2019-05-09T23:05:19.855Z,95147.47
2019-05-09T23:08:07.180Z,95146.67
2019-05-09T23:10:54.834Z,95149.27
2019-05-09T23:13:54.328Z,95152.84
2019-05-09T23:16:42.087Z,95151.91
2019-05-09T23:19:29.669Z,95142.21
2019-05-09T23:22:17.776Z,95151.56
2019-05-09T23:25:05.979Z,95151.77
2019-05-09T23:27:53.449Z,95150.19
2019-05-09T23:30:41.036Z,95148.97
2019-05-09T23:33:30.363Z,95143.42
2019-05-09T23:36:17.486Z,95144.38
2019-05-09T23:39:26.339Z,95142.12
2019-05-09T23:42:13.798Z,95141.83
2019-05-09T23:45:01.284Z,95140.47
2019-05-09T23:47:50.023Z,95150.73
2019-05-09T23:50:38.913Z,95145.89
2019-05-09T23:53:37.346Z,95147.64
2019-05-09T23:56:42.951Z,95145.31
2019-05-09T23:59:47.846Z,95139.69
